sensor_id;sensor_type;location;lat;lon;timestamp;P1;durP1;ratioP1;P2;durP2;ratioP2
64571;SDS011;51155;51.984;21.208;2023-02-01T00:00:56;4.20;;;1.70;;
64571;SDS011;51155;51.984;21.208;2023-02-01T00:03:28;3.80;;;1.60;;
64571;SDS011;51155;51.984;21.208;2023-02-01T00:06:02;3.60;;;1.50;;
64571;SDS011;51155;51.984;21.208;2023-02-01T00:08:34;3.50;;;2.10;;
64571;SDS011;51155;51.984;21.208;2023-02-01T00:11:08;3.90;;;1.80;;
64571;SDS011;51155;51.984;21.208;2023-02-01T00:13:41;4.50;;;1.70;;
64571;SDS011;51155;51.984;21.208;2023-02-01T00:16:19;3.00;;;1.20;;
64571;SDS011;51155;51.984;21.208;2023-02-01T00:18:55;3.50;;;1.80;;
64571;SDS011;51155;51.984;21.208;2023-02-01T00:21:27;3.70;;;2.00;;
64571;SDS011;51155;51.984;21.208;2023-02-01T00:23:59;3.40;;;1.80;;
64571;SDS011;51155;51.984;21.208;2023-02-01T00:29:09;3.90;;;1.90;;
64571;SDS011;51155;51.984;21.208;2023-02-01T00:31:42;3.20;;;1.80;;
64571;SDS011;51155;51.984;21.208;2023-02-01T00:34:15;3.80;;;1.70;;
64571;SDS011;51155;51.984;21.208;2023-02-01T00:36:48;3.80;;;1.90;;
64571;SDS011;51155;51.984;21.208;2023-02-01T00:39:20;2.90;;;1.60;;
64571;SDS011;51155;51.984;21.208;2023-02-01T00:41:52;2.60;;;1.90;;
64571;SDS011;51155;51.984;21.208;2023-02-01T00:44:24;2.50;;;1.60;;
64571;SDS011;51155;51.984;21.208;2023-02-01T00:46:56;3.40;;;1.80;;
64571;SDS011;51155;51.984;21.208;2023-02-01T00:49:28;2.90;;;1.50;;
64571;SDS011;51155;51.984;21.208;2023-02-01T00:52:00;2.70;;;1.70;;
64571;SDS011;51155;51.984;21.208;2023-02-01T00:54:33;3.60;;;1.90;;
64571;SDS011;51155;51.984;21.208;2023-02-01T00:57:05;2.50;;;1.60;;
64571;SDS011;51155;51.984;21.208;2023-02-01T00:59:37;3.00;;;1.70;;
64571;SDS011;51155;51.984;21.208;2023-02-01T01:02:09;3.70;;;1.70;;
64571;SDS011;51155;51.984;21.208;2023-02-01T01:04:42;2.80;;;1.70;;
64571;SDS011;51155;51.984;21.208;2023-02-01T01:07:14;3.80;;;1.90;;
64571;SDS011;51155;51.984;21.208;2023-02-01T01:09:46;3.00;;;1.60;;
64571;SDS011;51155;51.984;21.208;2023-02-01T01:12:18;3.30;;;1.70;;
64571;SDS011;51155;51.984;21.208;2023-02-01T01:14:51;3.80;;;1.60;;
64571;SDS011;51155;51.984;21.208;2023-02-01T01:17:23;3.60;;;1.90;;
64571;SDS011;51155;51.984;21.208;2023-02-01T01:19:55;3.60;;;1.70;;
64571;SDS011;51155;51.984;21.208;2023-02-01T01:22:30;4.50;;;1.50;;
64571;SDS011;51155;51.984;21.208;2023-02-01T01:25:02;2.40;;;1.40;;
64571;SDS011;51155;51.984;21.208;2023-02-01T01:27:34;3.10;;;1.90;;
64571;SDS011;51155;51.984;21.208;2023-02-01T01:30:07;2.50;;;1.30;;
64571;SDS011;51155;51.984;21.208;2023-02-01T01:32:39;2.60;;;1.20;;
64571;SDS011;51155;51.984;21.208;2023-02-01T01:35:11;3.10;;;1.90;;
64571;SDS011;51155;51.984;21.208;2023-02-01T01:37:43;2.80;;;1.50;;
64571;SDS011;51155;51.984;21.208;2023-02-01T01:40:15;3.40;;;1.60;;
64571;SDS011;51155;51.984;21.208;2023-02-01T01:42:48;3.10;;;1.50;;
64571;SDS011;51155;51.984;21.208;2023-02-01T01:45:23;3.90;;;1.80;;
64571;SDS011;51155;51.984;21.208;2023-02-01T01:47:56;3.90;;;1.50;;
64571;SDS011;51155;51.984;21.208;2023-02-01T01:50:50;3.00;;;1.70;;
64571;SDS011;51155;51.984;21.208;2023-02-01T01:53:26;2.80;;;1.50;;
64571;SDS011;51155;51.984;21.208;2023-02-01T01:55:59;3.30;;;1.70;;
64571;SDS011;51155;51.984;21.208;2023-02-01T01:58:32;2.60;;;1.20;;
64571;SDS011;51155;51.984;21.208;2023-02-01T02:01:05;3.20;;;1.60;;
64571;SDS011;51155;51.984;21.208;2023-02-01T02:03:44;3.70;;;1.30;;
64571;SDS011;51155;51.984;21.208;2023-02-01T02:06:20;3.70;;;1.40;;
64571;SDS011;51155;51.984;21.208;2023-02-01T02:08:56;3.20;;;1.20;;
64571;SDS011;51155;51.984;21.208;2023-02-01T02:11:28;3.40;;;1.70;;
64571;SDS011;51155;51.984;21.208;2023-02-01T02:14:00;3.70;;;1.50;;
64571;SDS011;51155;51.984;21.208;2023-02-01T02:38:32;2.80;;;1.20;;
64571;SDS011;51155;51.984;21.208;2023-02-01T02:43:47;2.00;;;1.20;;
64571;SDS011;51155;51.984;21.208;2023-02-01T02:46:46;3.30;;;1.30;;
64571;SDS011;51155;51.984;21.208;2023-02-01T02:53:16;4.40;;;1.50;;
64571;SDS011;51155;51.984;21.208;2023-02-01T02:56:08;2.90;;;1.60;;
64571;SDS011;51155;51.984;21.208;2023-02-01T02:59:00;2.10;;;1.20;;
64571;SDS011;51155;51.984;21.208;2023-02-01T03:01:52;2.80;;;1.10;;
64571;SDS011;51155;51.984;21.208;2023-02-01T03:04:44;2.10;;;1.10;;
64571;SDS011;51155;51.984;21.208;2023-02-01T03:13:52;3.10;;;1.20;;
64571;SDS011;51155;51.984;21.208;2023-02-01T03:19:05;2.30;;;1.50;;
64571;SDS011;51155;51.984;21.208;2023-02-01T03:24:25;2.10;;;1.50;;
64571;SDS011;51155;51.984;21.208;2023-02-01T03:30:23;2.40;;;1.30;;
64571;SDS011;51155;51.984;21.208;2023-02-01T03:32:58;2.00;;;0.80;;
64571;SDS011;51155;51.984;21.208;2023-02-01T03:35:53;2.80;;;1.30;;
64571;SDS011;51155;51.984;21.208;2023-02-01T03:38:50;1.80;;;0.90;;
64571;SDS011;51155;51.984;21.208;2023-02-01T03:41:28;3.50;;;1.20;;
64571;SDS011;51155;51.984;21.208;2023-02-01T03:46:45;2.70;;;1.30;;
64571;SDS011;51155;51.984;21.208;2023-02-01T03:52:14;2.40;;;1.30;;
64571;SDS011;51155;51.984;21.208;2023-02-01T03:54:46;2.60;;;1.40;;
64571;SDS011;51155;51.984;21.208;2023-02-01T03:57:22;2.40;;;1.10;;
64571;SDS011;51155;51.984;21.208;2023-02-01T04:00:04;1.90;;;1.20;;
64571;SDS011;51155;51.984;21.208;2023-02-01T04:02:44;1.90;;;1.00;;
64571;SDS011;51155;51.984;21.208;2023-02-01T04:05:16;2.60;;;0.80;;
64571;SDS011;51155;51.984;21.208;2023-02-01T04:07:57;1.60;;;1.20;;
64571;SDS011;51155;51.984;21.208;2023-02-01T04:13:01;1.50;;;0.80;;
64571;SDS011;51155;51.984;21.208;2023-02-01T04:15:33;3.30;;;1.30;;
64571;SDS011;51155;51.984;21.208;2023-02-01T04:18:06;2.30;;;1.00;;
64571;SDS011;51155;51.984;21.208;2023-02-01T04:20:38;2.80;;;1.10;;
64571;SDS011;51155;51.984;21.208;2023-02-01T04:23:10;2.60;;;1.20;;
64571;SDS011;51155;51.984;21.208;2023-02-01T04:25:42;3.40;;;1.70;;
64571;SDS011;51155;51.984;21.208;2023-02-01T04:28:14;2.50;;;1.20;;
64571;SDS011;51155;51.984;21.208;2023-02-01T04:30:46;1.80;;;0.90;;
64571;SDS011;51155;51.984;21.208;2023-02-01T04:33:18;2.00;;;0.90;;
64571;SDS011;51155;51.984;21.208;2023-02-01T04:35:50;2.30;;;1.20;;
64571;SDS011;51155;51.984;21.208;2023-02-01T04:38:22;2.50;;;1.10;;
64571;SDS011;51155;51.984;21.208;2023-02-01T04:40:54;1.80;;;0.80;;
64571;SDS011;51155;51.984;21.208;2023-02-01T04:43:26;2.20;;;0.90;;
64571;SDS011;51155;51.984;21.208;2023-02-01T04:45:58;1.60;;;0.90;;
64571;SDS011;51155;51.984;21.208;2023-02-01T04:48:30;2.20;;;1.00;;
64571;SDS011;51155;51.984;21.208;2023-02-01T04:51:02;1.90;;;0.80;;
64571;SDS011;51155;51.984;21.208;2023-02-01T04:53:34;2.40;;;1.00;;
64571;SDS011;51155;51.984;21.208;2023-02-01T04:56:06;3.70;;;1.10;;
64571;SDS011;51155;51.984;21.208;2023-02-01T04:58:38;2.70;;;1.20;;
64571;SDS011;51155;51.984;21.208;2023-02-01T05:01:10;2.50;;;1.30;;
64571;SDS011;51155;51.984;21.208;2023-02-01T05:03:43;3.30;;;1.00;;
64571;SDS011;51155;51.984;21.208;2023-02-01T05:06:15;2.10;;;1.00;;
64571;SDS011;51155;51.984;21.208;2023-02-01T05:08:46;2.40;;;1.10;;
64571;SDS011;51155;51.984;21.208;2023-02-01T05:11:18;2.50;;;1.00;;
64571;SDS011;51155;51.984;21.208;2023-02-01T05:14:09;2.30;;;0.90;;
64571;SDS011;51155;51.984;21.208;2023-02-01T05:16:41;3.30;;;0.90;;
64571;SDS011;51155;51.984;21.208;2023-02-01T05:19:13;1.90;;;0.90;;
64571;SDS011;51155;51.984;21.208;2023-02-01T05:21:45;1.90;;;0.90;;
64571;SDS011;51155;51.984;21.208;2023-02-01T05:24:17;3.10;;;1.10;;
64571;SDS011;51155;51.984;21.208;2023-02-01T05:26:53;2.80;;;1.00;;
64571;SDS011;51155;51.984;21.208;2023-02-01T05:29:25;2.00;;;0.80;;
64571;SDS011;51155;51.984;21.208;2023-02-01T05:31:56;3.10;;;1.10;;
64571;SDS011;51155;51.984;21.208;2023-02-01T05:34:42;1.20;;;0.70;;
64571;SDS011;51155;51.984;21.208;2023-02-01T05:37:14;2.00;;;0.90;;
64571;SDS011;51155;51.984;21.208;2023-02-01T05:39:46;1.80;;;0.80;;
64571;SDS011;51155;51.984;21.208;2023-02-01T05:42:18;2.00;;;0.90;;
64571;SDS011;51155;51.984;21.208;2023-02-01T05:44:50;2.10;;;0.80;;
64571;SDS011;51155;51.984;21.208;2023-02-01T05:47:22;2.40;;;0.80;;
64571;SDS011;51155;51.984;21.208;2023-02-01T05:49:54;2.00;;;0.80;;
64571;SDS011;51155;51.984;21.208;2023-02-01T05:52:26;1.20;;;0.60;;
64571;SDS011;51155;51.984;21.208;2023-02-01T05:54:59;3.20;;;1.10;;
64571;SDS011;51155;51.984;21.208;2023-02-01T05:57:31;1.60;;;0.80;;
64571;SDS011;51155;51.984;21.208;2023-02-01T06:00:03;2.50;;;0.90;;
64571;SDS011;51155;51.984;21.208;2023-02-01T06:02:42;2.50;;;0.90;;
64571;SDS011;51155;51.984;21.208;2023-02-01T06:05:15;2.00;;;1.10;;
64571;SDS011;51155;51.984;21.208;2023-02-01T06:07:47;3.20;;;0.90;;
64571;SDS011;51155;51.984;21.208;2023-02-01T06:10:21;3.10;;;0.90;;
64571;SDS011;51155;51.984;21.208;2023-02-01T06:12:53;1.90;;;1.00;;
64571;SDS011;51155;51.984;21.208;2023-02-01T06:15:25;2.40;;;0.80;;
64571;SDS011;51155;51.984;21.208;2023-02-01T06:17:57;1.80;;;0.80;;
64571;SDS011;51155;51.984;21.208;2023-02-01T06:20:29;3.20;;;1.00;;
64571;SDS011;51155;51.984;21.208;2023-02-01T06:23:02;1.60;;;0.90;;
64571;SDS011;51155;51.984;21.208;2023-02-01T06:25:33;1.70;;;0.80;;
64571;SDS011;51155;51.984;21.208;2023-02-01T06:28:05;2.30;;;1.00;;
64571;SDS011;51155;51.984;21.208;2023-02-01T06:30:37;1.50;;;0.80;;
64571;SDS011;51155;51.984;21.208;2023-02-01T06:33:13;3.90;;;1.10;;
64571;SDS011;51155;51.984;21.208;2023-02-01T06:35:46;1.70;;;0.80;;
64571;SDS011;51155;51.984;21.208;2023-02-01T06:38:18;2.20;;;1.10;;
64571;SDS011;51155;51.984;21.208;2023-02-01T06:40:54;2.10;;;1.10;;
64571;SDS011;51155;51.984;21.208;2023-02-01T06:43:26;2.20;;;0.80;;
64571;SDS011;51155;51.984;21.208;2023-02-01T06:46:00;2.00;;;0.90;;
64571;SDS011;51155;51.984;21.208;2023-02-01T06:48:34;2.00;;;0.90;;
64571;SDS011;51155;51.984;21.208;2023-02-01T06:51:06;2.50;;;0.90;;
64571;SDS011;51155;51.984;21.208;2023-02-01T06:53:38;2.70;;;0.80;;
64571;SDS011;51155;51.984;21.208;2023-02-01T06:56:10;1.30;;;0.70;;
64571;SDS011;51155;51.984;21.208;2023-02-01T06:58:42;2.00;;;1.20;;
64571;SDS011;51155;51.984;21.208;2023-02-01T07:01:14;2.40;;;0.60;;
64571;SDS011;51155;51.984;21.208;2023-02-01T07:03:48;1.90;;;0.90;;
64571;SDS011;51155;51.984;21.208;2023-02-01T07:06:20;2.20;;;0.80;;
64571;SDS011;51155;51.984;21.208;2023-02-01T07:08:52;2.00;;;0.90;;
64571;SDS011;51155;51.984;21.208;2023-02-01T07:11:27;1.70;;;0.80;;
64571;SDS011;51155;51.984;21.208;2023-02-01T07:13:59;2.10;;;0.80;;
64571;SDS011;51155;51.984;21.208;2023-02-01T07:16:31;2.30;;;0.80;;
64571;SDS011;51155;51.984;21.208;2023-02-01T07:19:03;2.00;;;0.80;;
64571;SDS011;51155;51.984;21.208;2023-02-01T07:21:36;1.40;;;0.80;;
64571;SDS011;51155;51.984;21.208;2023-02-01T07:24:08;2.70;;;1.10;;
64571;SDS011;51155;51.984;21.208;2023-02-01T07:26:40;2.50;;;0.70;;
64571;SDS011;51155;51.984;21.208;2023-02-01T07:29:11;2.80;;;1.10;;
64571;SDS011;51155;51.984;21.208;2023-02-01T07:31:43;1.50;;;0.70;;
64571;SDS011;51155;51.984;21.208;2023-02-01T07:34:15;1.60;;;0.90;;
64571;SDS011;51155;51.984;21.208;2023-02-01T07:36:47;1.10;;;0.60;;
64571;SDS011;51155;51.984;21.208;2023-02-01T07:39:19;2.40;;;0.90;;
64571;SDS011;51155;51.984;21.208;2023-02-01T07:41:51;2.20;;;0.60;;
64571;SDS011;51155;51.984;21.208;2023-02-01T07:44:23;1.90;;;1.00;;
64571;SDS011;51155;51.984;21.208;2023-02-01T07:46:55;2.50;;;1.00;;
64571;SDS011;51155;51.984;21.208;2023-02-01T07:49:27;2.80;;;0.80;;
64571;SDS011;51155;51.984;21.208;2023-02-01T07:51:59;2.20;;;0.80;;
64571;SDS011;51155;51.984;21.208;2023-02-01T07:54:31;2.10;;;0.80;;
64571;SDS011;51155;51.984;21.208;2023-02-01T07:57:03;2.80;;;0.90;;
64571;SDS011;51155;51.984;21.208;2023-02-01T07:59:35;2.50;;;1.10;;
64571;SDS011;51155;51.984;21.208;2023-02-01T08:02:27;1.80;;;0.60;;
64571;SDS011;51155;51.984;21.208;2023-02-01T08:04:59;2.20;;;0.90;;
64571;SDS011;51155;51.984;21.208;2023-02-01T08:07:31;3.40;;;0.70;;
64571;SDS011;51155;51.984;21.208;2023-02-01T08:10:03;1.60;;;0.50;;
64571;SDS011;51155;51.984;21.208;2023-02-01T08:12:37;1.80;;;0.70;;
64571;SDS011;51155;51.984;21.208;2023-02-01T08:15:10;2.60;;;0.80;;
64571;SDS011;51155;51.984;21.208;2023-02-01T08:17:47;3.50;;;0.80;;
64571;SDS011;51155;51.984;21.208;2023-02-01T08:20:19;1.10;;;0.60;;
64571;SDS011;51155;51.984;21.208;2023-02-01T08:22:54;1.30;;;0.60;;
64571;SDS011;51155;51.984;21.208;2023-02-01T08:25:26;2.30;;;0.70;;
64571;SDS011;51155;51.984;21.208;2023-02-01T08:27:59;1.70;;;0.60;;
64571;SDS011;51155;51.984;21.208;2023-02-01T08:30:31;2.20;;;0.80;;
64571;SDS011;51155;51.984;21.208;2023-02-01T08:33:03;1.50;;;0.70;;
64571;SDS011;51155;51.984;21.208;2023-02-01T08:35:35;1.90;;;0.80;;
64571;SDS011;51155;51.984;21.208;2023-02-01T08:38:14;2.90;;;1.00;;
64571;SDS011;51155;51.984;21.208;2023-02-01T08:40:46;1.80;;;0.80;;
64571;SDS011;51155;51.984;21.208;2023-02-01T08:43:18;1.10;;;0.60;;
64571;SDS011;51155;51.984;21.208;2023-02-01T08:45:53;2.40;;;0.80;;
64571;SDS011;51155;51.984;21.208;2023-02-01T08:48:27;1.50;;;0.70;;
64571;SDS011;51155;51.984;21.208;2023-02-01T08:51:04;1.40;;;0.70;;
64571;SDS011;51155;51.984;21.208;2023-02-01T08:53:37;1.70;;;0.80;;
64571;SDS011;51155;51.984;21.208;2023-02-01T08:56:13;2.40;;;1.30;;
64571;SDS011;51155;51.984;21.208;2023-02-01T08:58:45;2.00;;;1.00;;
64571;SDS011;51155;51.984;21.208;2023-02-01T09:01:17;2.00;;;0.70;;
64571;SDS011;51155;51.984;21.208;2023-02-01T09:03:49;2.20;;;0.90;;
64571;SDS011;51155;51.984;21.208;2023-02-01T09:06:22;2.40;;;0.90;;
64571;SDS011;51155;51.984;21.208;2023-02-01T09:08:53;2.50;;;0.80;;
64571;SDS011;51155;51.984;21.208;2023-02-01T09:11:25;1.20;;;0.70;;
64571;SDS011;51155;51.984;21.208;2023-02-01T09:13:58;1.50;;;0.90;;
64571;SDS011;51155;51.984;21.208;2023-02-01T09:16:30;1.30;;;0.70;;
64571;SDS011;51155;51.984;21.208;2023-02-01T09:19:02;3.40;;;0.60;;
64571;SDS011;51155;51.984;21.208;2023-02-01T09:21:54;1.90;;;0.70;;
64571;SDS011;51155;51.984;21.208;2023-02-01T09:24:26;1.90;;;0.60;;
64571;SDS011;51155;51.984;21.208;2023-02-01T09:29:31;2.80;;;0.90;;
64571;SDS011;51155;51.984;21.208;2023-02-01T09:32:03;2.80;;;0.90;;
64571;SDS011;51155;51.984;21.208;2023-02-01T09:34:35;2.00;;;0.90;;
64571;SDS011;51155;51.984;21.208;2023-02-01T09:37:07;1.70;;;0.80;;
64571;SDS011;51155;51.984;21.208;2023-02-01T09:39:40;2.30;;;0.70;;
64571;SDS011;51155;51.984;21.208;2023-02-01T09:42:16;2.90;;;0.90;;
64571;SDS011;51155;51.984;21.208;2023-02-01T09:45:24;2.70;;;1.00;;
64571;SDS011;51155;51.984;21.208;2023-02-01T09:48:02;3.00;;;1.10;;
64571;SDS011;51155;51.984;21.208;2023-02-01T09:50:38;1.80;;;0.80;;
64571;SDS011;51155;51.984;21.208;2023-02-01T09:53:27;2.20;;;0.80;;
64571;SDS011;51155;51.984;21.208;2023-02-01T09:56:12;2.70;;;0.90;;
64571;SDS011;51155;51.984;21.208;2023-02-01T09:58:49;2.10;;;0.80;;
64571;SDS011;51155;51.984;21.208;2023-02-01T10:01:24;2.40;;;1.00;;
64571;SDS011;51155;51.984;21.208;2023-02-01T10:04:02;1.90;;;0.90;;
64571;SDS011;51155;51.984;21.208;2023-02-01T10:07:02;1.40;;;0.90;;
64571;SDS011;51155;51.984;21.208;2023-02-01T10:12:45;3.00;;;1.00;;
64571;SDS011;51155;51.984;21.208;2023-02-01T10:18:27;2.90;;;1.00;;
64571;SDS011;51155;51.984;21.208;2023-02-01T10:24:25;2.80;;;0.80;;
64571;SDS011;51155;51.984;21.208;2023-02-01T10:27:11;2.60;;;0.80;;
64571;SDS011;51155;51.984;21.208;2023-02-01T10:29:45;1.80;;;0.60;;
64571;SDS011;51155;51.984;21.208;2023-02-01T10:32:24;2.10;;;0.80;;
64571;SDS011;51155;51.984;21.208;2023-02-01T10:35:23;2.50;;;0.80;;
64571;SDS011;51155;51.984;21.208;2023-02-01T10:37:52;2.20;;;0.80;;
64571;SDS011;51155;51.984;21.208;2023-02-01T10:40:25;2.20;;;0.60;;
64571;SDS011;51155;51.984;21.208;2023-02-01T10:42:59;2.30;;;0.90;;
64571;SDS011;51155;51.984;21.208;2023-02-01T10:45:35;2.20;;;0.80;;
64571;SDS011;51155;51.984;21.208;2023-02-01T10:48:09;2.40;;;0.90;;
64571;SDS011;51155;51.984;21.208;2023-02-01T10:51:00;1.70;;;0.90;;
64571;SDS011;51155;51.984;21.208;2023-02-01T10:54:00;1.60;;;0.70;;
64571;SDS011;51155;51.984;21.208;2023-02-01T10:56:34;1.70;;;0.80;;
64571;SDS011;51155;51.984;21.208;2023-02-01T10:59:18;1.50;;;0.60;;
64571;SDS011;51155;51.984;21.208;2023-02-01T11:02:00;1.70;;;0.80;;
64571;SDS011;51155;51.984;21.208;2023-02-01T11:04:34;2.40;;;1.00;;
64571;SDS011;51155;51.984;21.208;2023-02-01T11:07:17;1.30;;;0.80;;
64571;SDS011;51155;51.984;21.208;2023-02-01T11:09:52;2.20;;;0.90;;
64571;SDS011;51155;51.984;21.208;2023-02-01T11:12:37;1.50;;;0.70;;
64571;SDS011;51155;51.984;21.208;2023-02-01T11:15:22;2.70;;;0.60;;
64571;SDS011;51155;51.984;21.208;2023-02-01T11:17:56;1.70;;;0.80;;
64571;SDS011;51155;51.984;21.208;2023-02-01T11:20:45;2.10;;;0.70;;
64571;SDS011;51155;51.984;21.208;2023-02-01T11:23:25;1.90;;;0.90;;
64571;SDS011;51155;51.984;21.208;2023-02-01T11:26:00;1.80;;;0.80;;
64571;SDS011;51155;51.984;21.208;2023-02-01T11:28:33;2.00;;;0.80;;
64571;SDS011;51155;51.984;21.208;2023-02-01T11:31:09;1.50;;;0.70;;
64571;SDS011;51155;51.984;21.208;2023-02-01T11:33:49;2.20;;;0.70;;
64571;SDS011;51155;51.984;21.208;2023-02-01T11:36:27;2.50;;;1.00;;
64571;SDS011;51155;51.984;21.208;2023-02-01T11:44:46;1.60;;;0.80;;
64571;SDS011;51155;51.984;21.208;2023-02-01T11:47:41;1.40;;;1.20;;
64571;SDS011;51155;51.984;21.208;2023-02-01T11:50:20;1.40;;;0.60;;
64571;SDS011;51155;51.984;21.208;2023-02-01T11:53:16;2.40;;;0.70;;
64571;SDS011;51155;51.984;21.208;2023-02-01T11:59:11;1.70;;;0.90;;
64571;SDS011;51155;51.984;21.208;2023-02-01T12:08:22;1.40;;;0.60;;
64571;SDS011;51155;51.984;21.208;2023-02-01T12:11:10;1.90;;;0.80;;
64571;SDS011;51155;51.984;21.208;2023-02-01T12:26:00;1.50;;;0.80;;
64571;SDS011;51155;51.984;21.208;2023-02-01T12:31:18;1.80;;;0.90;;
64571;SDS011;51155;51.984;21.208;2023-02-01T12:37:02;2.80;;;1.00;;
64571;SDS011;51155;51.984;21.208;2023-02-01T12:45:15;3.60;;;0.90;;
64571;SDS011;51155;51.984;21.208;2023-02-01T12:47:50;1.60;;;0.70;;
64571;SDS011;51155;51.984;21.208;2023-02-01T12:50:28;1.90;;;0.50;;
64571;SDS011;51155;51.984;21.208;2023-02-01T12:56:16;1.40;;;0.70;;
64571;SDS011;51155;51.984;21.208;2023-02-01T12:58:52;2.30;;;0.80;;
64571;SDS011;51155;51.984;21.208;2023-02-01T13:01:44;2.30;;;1.00;;
64571;SDS011;51155;51.984;21.208;2023-02-01T13:04:26;1.90;;;0.70;;
64571;SDS011;51155;51.984;21.208;2023-02-01T13:09:40;1.50;;;0.70;;
64571;SDS011;51155;51.984;21.208;2023-02-01T13:12:16;1.50;;;0.90;;
64571;SDS011;51155;51.984;21.208;2023-02-01T13:14:52;2.10;;;0.90;;
64571;SDS011;51155;51.984;21.208;2023-02-01T13:17:30;1.80;;;0.80;;
64571;SDS011;51155;51.984;21.208;2023-02-01T13:22:48;2.30;;;0.90;;
64571;SDS011;51155;51.984;21.208;2023-02-01T13:25:46;2.10;;;0.80;;
64571;SDS011;51155;51.984;21.208;2023-02-01T13:28:26;1.80;;;0.80;;
64571;SDS011;51155;51.984;21.208;2023-02-01T13:37:15;2.30;;;1.00;;
64571;SDS011;51155;51.984;21.208;2023-02-01T13:42:28;3.00;;;1.10;;
64571;SDS011;51155;51.984;21.208;2023-02-01T13:45:03;1.40;;;0.60;;
64571;SDS011;51155;51.984;21.208;2023-02-01T13:47:42;2.50;;;1.00;;
64571;SDS011;51155;51.984;21.208;2023-02-01T13:50:34;3.10;;;1.00;;
64571;SDS011;51155;51.984;21.208;2023-02-01T13:55:44;2.80;;;1.10;;
64571;SDS011;51155;51.984;21.208;2023-02-01T13:58:30;3.60;;;1.60;;
64571;SDS011;51155;51.984;21.208;2023-02-01T14:04:04;2.00;;;0.90;;
64571;SDS011;51155;51.984;21.208;2023-02-01T14:06:42;2.20;;;1.10;;
64571;SDS011;51155;51.984;21.208;2023-02-01T14:09:37;2.60;;;1.10;;
64571;SDS011;51155;51.984;21.208;2023-02-01T14:17:50;2.20;;;1.00;;
64571;SDS011;51155;51.984;21.208;2023-02-01T14:20:42;3.80;;;1.40;;
64571;SDS011;51155;51.984;21.208;2023-02-01T14:23:17;2.10;;;1.20;;
64571;SDS011;51155;51.984;21.208;2023-02-01T14:26:02;2.30;;;1.00;;
64571;SDS011;51155;51.984;21.208;2023-02-01T14:28:38;2.00;;;1.00;;
64571;SDS011;51155;51.984;21.208;2023-02-01T14:31:31;3.90;;;1.30;;
64571;SDS011;51155;51.984;21.208;2023-02-01T14:34:15;2.50;;;1.20;;
64571;SDS011;51155;51.984;21.208;2023-02-01T14:36:55;2.10;;;0.90;;
64571;SDS011;51155;51.984;21.208;2023-02-01T14:42:03;2.20;;;1.20;;
64571;SDS011;51155;51.984;21.208;2023-02-01T14:44:36;1.90;;;1.10;;
64571;SDS011;51155;51.984;21.208;2023-02-01T14:50:13;2.20;;;1.10;;
64571;SDS011;51155;51.984;21.208;2023-02-01T14:55:59;2.70;;;1.20;;
64571;SDS011;51155;51.984;21.208;2023-02-01T15:01:30;2.70;;;1.30;;
64571;SDS011;51155;51.984;21.208;2023-02-01T15:09:54;2.50;;;1.30;;
64571;SDS011;51155;51.984;21.208;2023-02-01T15:12:28;2.60;;;1.40;;
64571;SDS011;51155;51.984;21.208;2023-02-01T15:17:57;3.70;;;1.60;;
64571;SDS011;51155;51.984;21.208;2023-02-01T15:20:32;3.00;;;1.60;;
64571;SDS011;51155;51.984;21.208;2023-02-01T15:23:15;2.80;;;1.60;;
64571;SDS011;51155;51.984;21.208;2023-02-01T15:25:48;4.10;;;1.80;;
64571;SDS011;51155;51.984;21.208;2023-02-01T15:28:22;3.00;;;1.60;;
64571;SDS011;51155;51.984;21.208;2023-02-01T15:31:04;2.90;;;1.60;;
64571;SDS011;51155;51.984;21.208;2023-02-01T15:33:37;3.00;;;1.40;;
64571;SDS011;51155;51.984;21.208;2023-02-01T15:36:15;3.60;;;1.70;;
64571;SDS011;51155;51.984;21.208;2023-02-01T15:38:49;3.30;;;1.60;;
64571;SDS011;51155;51.984;21.208;2023-02-01T15:41:41;3.50;;;2.00;;
64571;SDS011;51155;51.984;21.208;2023-02-01T15:46:51;3.20;;;1.70;;
64571;SDS011;51155;51.984;21.208;2023-02-01T15:49:26;3.00;;;2.00;;
64571;SDS011;51155;51.984;21.208;2023-02-01T15:52:00;3.00;;;1.60;;
64571;SDS011;51155;51.984;21.208;2023-02-01T15:54:46;2.90;;;1.60;;
64571;SDS011;51155;51.984;21.208;2023-02-01T15:57:33;4.80;;;1.90;;
64571;SDS011;51155;51.984;21.208;2023-02-01T16:03:03;4.80;;;2.20;;
64571;SDS011;51155;51.984;21.208;2023-02-01T16:05:39;3.50;;;1.70;;
64571;SDS011;51155;51.984;21.208;2023-02-01T16:08:23;3.80;;;1.60;;
64571;SDS011;51155;51.984;21.208;2023-02-01T16:13:39;3.20;;;2.10;;
64571;SDS011;51155;51.984;21.208;2023-02-01T16:18:45;3.30;;;1.80;;
64571;SDS011;51155;51.984;21.208;2023-02-01T16:21:17;3.30;;;1.90;;
64571;SDS011;51155;51.984;21.208;2023-02-01T16:23:50;3.80;;;1.40;;
64571;SDS011;51155;51.984;21.208;2023-02-01T16:26:23;4.20;;;1.90;;
64571;SDS011;51155;51.984;21.208;2023-02-01T16:28:55;3.50;;;1.50;;
64571;SDS011;51155;51.984;21.208;2023-02-01T16:31:29;3.90;;;2.00;;
64571;SDS011;51155;51.984;21.208;2023-02-01T16:34:02;3.80;;;1.90;;
64571;SDS011;51155;51.984;21.208;2023-02-01T16:36:34;3.10;;;1.60;;
64571;SDS011;51155;51.984;21.208;2023-02-01T16:39:15;2.80;;;1.80;;
64571;SDS011;51155;51.984;21.208;2023-02-01T16:41:47;3.10;;;1.90;;
64571;SDS011;51155;51.984;21.208;2023-02-01T16:44:19;3.90;;;1.80;;
64571;SDS011;51155;51.984;21.208;2023-02-01T16:46:51;2.70;;;1.70;;
64571;SDS011;51155;51.984;21.208;2023-02-01T16:49:24;4.10;;;1.80;;
64571;SDS011;51155;51.984;21.208;2023-02-01T16:51:57;3.10;;;1.90;;
64571;SDS011;51155;51.984;21.208;2023-02-01T16:54:30;3.70;;;2.00;;
64571;SDS011;51155;51.984;21.208;2023-02-01T16:57:02;3.50;;;1.90;;
64571;SDS011;51155;51.984;21.208;2023-02-01T16:59:34;4.60;;;1.80;;
64571;SDS011;51155;51.984;21.208;2023-02-01T17:02:10;3.90;;;1.80;;
64571;SDS011;51155;51.984;21.208;2023-02-01T17:04:42;3.10;;;1.80;;
64571;SDS011;51155;51.984;21.208;2023-02-01T17:07:18;3.40;;;1.60;;
64571;SDS011;51155;51.984;21.208;2023-02-01T17:09:50;5.50;;;2.20;;
64571;SDS011;51155;51.984;21.208;2023-02-01T17:12:27;2.80;;;1.70;;
64571;SDS011;51155;51.984;21.208;2023-02-01T17:15:01;3.30;;;1.70;;
64571;SDS011;51155;51.984;21.208;2023-02-01T17:17:36;3.90;;;1.90;;
64571;SDS011;51155;51.984;21.208;2023-02-01T17:20:19;2.30;;;1.70;;
64571;SDS011;51155;51.984;21.208;2023-02-01T17:22:52;4.20;;;2.10;;
64571;SDS011;51155;51.984;21.208;2023-02-01T17:25:24;3.10;;;1.80;;
64571;SDS011;51155;51.984;21.208;2023-02-01T17:27:57;3.50;;;2.10;;
64571;SDS011;51155;51.984;21.208;2023-02-01T17:30:30;4.30;;;2.00;;
64571;SDS011;51155;51.984;21.208;2023-02-01T17:35:53;2.70;;;1.50;;
64571;SDS011;51155;51.984;21.208;2023-02-01T17:38:26;3.30;;;1.90;;
64571;SDS011;51155;51.984;21.208;2023-02-01T17:40:58;2.80;;;1.70;;
64571;SDS011;51155;51.984;21.208;2023-02-01T17:43:30;3.10;;;1.90;;
64571;SDS011;51155;51.984;21.208;2023-02-01T17:46:13;3.20;;;1.80;;
64571;SDS011;51155;51.984;21.208;2023-02-01T17:48:46;3.60;;;1.80;;
64571;SDS011;51155;51.984;21.208;2023-02-01T17:51:20;4.40;;;2.00;;
64571;SDS011;51155;51.984;21.208;2023-02-01T17:53:52;3.40;;;1.80;;
64571;SDS011;51155;51.984;21.208;2023-02-01T17:56:24;4.90;;;2.40;;
64571;SDS011;51155;51.984;21.208;2023-02-01T17:58:56;4.20;;;1.70;;
64571;SDS011;51155;51.984;21.208;2023-02-01T18:01:29;3.00;;;1.80;;
64571;SDS011;51155;51.984;21.208;2023-02-01T18:04:02;3.00;;;2.00;;
64571;SDS011;51155;51.984;21.208;2023-02-01T18:06:34;3.60;;;2.10;;
64571;SDS011;51155;51.984;21.208;2023-02-01T18:09:09;3.80;;;2.00;;
64571;SDS011;51155;51.984;21.208;2023-02-01T18:11:41;3.70;;;2.10;;